sensor_id;sensor_type;location;lat;lon;timestamp;temperature;humidity
8402;DHT22;4238;48.404;9.498;2022-09-16T00:00:32;8.90;99.90
8402;DHT22;4238;48.404;9.498;2022-09-16T00:02:59;8.90;99.90
8402;DHT22;4238;48.404;9.498;2022-09-16T00:05:26;9.00;99.90
8402;DHT22;4238;48.404;9.498;2022-09-16T00:07:53;9.00;99.90
8402;DHT22;4238;48.404;9.498;2022-09-16T00:10:22;9.10;99.90
8402;DHT22;4238;48.404;9.498;2022-09-16T00:12:49;9.10;99.90
8402;DHT22;4238;48.404;9.498;2022-09-16T00:15:17;9.20;99.90
8402;DHT22;4238;48.404;9.498;2022-09-16T00:17:45;9.20;99.90
8402;DHT22;4238;48.404;9.498;2022-09-16T00:20:12;9.10;99.90
8402;DHT22;4238;48.404;9.498;2022-09-16T00:22:39;9.30;99.90
8402;DHT22;4238;48.404;9.498;2022-09-16T00:25:06;9.40;99.90
8402;DHT22;4238;48.404;9.498;2022-09-16T00:27:33;9.50;99.90
8402;DHT22;4238;48.404;9.498;2022-09-16T00:30:00;9.60;99.90
8402;DHT22;4238;48.404;9.498;2022-09-16T00:32:27;9.60;99.90
8402;DHT22;4238;48.404;9.498;2022-09-16T00:34:56;9.50;99.90
8402;DHT22;4238;48.404;9.498;2022-09-16T00:37:22;9.60;99.90
8402;DHT22;4238;48.404;9.498;2022-09-16T00:39:50;9.70;99.90
8402;DHT22;4238;48.404;9.498;2022-09-16T00:42:17;9.70;99.90
8402;DHT22;4238;48.404;9.498;2022-09-16T00:44:54;9.80;99.90
8402;DHT22;4238;48.404;9.498;2022-09-16T00:47:26;9.80;99.90
8402;DHT22;4238;48.404;9.498;2022-09-16T00:49:58;9.80;99.90
8402;DHT22;4238;48.404;9.498;2022-09-16T00:52:26;9.80;99.90
8402;DHT22;4238;48.404;9.498;2022-09-16T00:54:56;9.80;99.90
8402;DHT22;4238;48.404;9.498;2022-09-16T00:57:24;9.80;99.90
8402;DHT22;4238;48.404;9.498;2022-09-16T00:59:53;10.00;99.90
8402;DHT22;4238;48.404;9.498;2022-09-16T01:02:21;10.00;99.90
8402;DHT22;4238;48.404;9.498;2022-09-16T01:04:52;10.10;99.90
8402;DHT22;4238;48.404;9.498;2022-09-16T01:07:26;10.10;99.90
8402;DHT22;4238;48.404;9.498;2022-09-16T01:09:57;10.10;99.90
8402;DHT22;4238;48.404;9.498;2022-09-16T01:12:27;10.10;99.90
8402;DHT22;4238;48.404;9.498;2022-09-16T01:14:55;10.00;99.90
8402;DHT22;4238;48.404;9.498;2022-09-16T01:17:40;10.00;99.90
8402;DHT22;4238;48.404;9.498;2022-09-16T01:23:35;10.00;99.90
8402;DHT22;4238;48.404;9.498;2022-09-16T01:26:24;10.00;99.90
8402;DHT22;4238;48.404;9.498;2022-09-16T01:29:18;10.00;99.90
8402;DHT22;4238;48.404;9.498;2022-09-16T01:31:54;10.00;99.90
8402;DHT22;4238;48.404;9.498;2022-09-16T01:34:32;9.90;99.90
8402;DHT22;4238;48.404;9.498;2022-09-16T01:37:05;9.90;99.90
8402;DHT22;4238;48.404;9.498;2022-09-16T01:39:42;9.80;99.90
8402;DHT22;4238;48.404;9.498;2022-09-16T01:42:18;9.90;99.90
8402;DHT22;4238;48.404;9.498;2022-09-16T01:44:53;9.90;99.90
8402;DHT22;4238;48.404;9.498;2022-09-16T01:47:29;10.00;99.90
8402;DHT22;4238;48.404;9.498;2022-09-16T01:50:02;9.90;99.90
8402;DHT22;4238;48.404;9.498;2022-09-16T01:52:38;9.90;99.90
8402;DHT22;4238;48.404;9.498;2022-09-16T01:55:12;9.90;99.90
8402;DHT22;4238;48.404;9.498;2022-09-16T01:57:46;9.90;99.90
8402;DHT22;4238;48.404;9.498;2022-09-16T02:00:14;9.90;99.90
8402;DHT22;4238;48.404;9.498;2022-09-16T02:02:47;9.90;99.90
8402;DHT22;4238;48.404;9.498;2022-09-16T02:05:18;10.00;99.90
8402;DHT22;4238;48.404;9.498;2022-09-16T02:07:49;10.10;99.90
8402;DHT22;4238;48.404;9.498;2022-09-16T02:10:25;10.10;99.90
8402;DHT22;4238;48.404;9.498;2022-09-16T02:13:01;10.10;99.90
8402;DHT22;4238;48.404;9.498;2022-09-16T02:15:29;10.20;99.90
8402;DHT22;4238;48.404;9.498;2022-09-16T02:18:01;10.10;99.90
8402;DHT22;4238;48.404;9.498;2022-09-16T02:20:31;10.20;99.90
8402;DHT22;4238;48.404;9.498;2022-09-16T02:23:04;10.20;99.90
8402;DHT22;4238;48.404;9.498;2022-09-16T02:25:34;10.20;99.90
8402;DHT22;4238;48.404;9.498;2022-09-16T02:28:06;10.20;99.90
8402;DHT22;4238;48.404;9.498;2022-09-16T02:30:37;10.20;99.90
8402;DHT22;4238;48.404;9.498;2022-09-16T02:33:08;10.20;99.90
8402;DHT22;4238;48.404;9.498;2022-09-16T02:35:37;10.30;99.90
8402;DHT22;4238;48.404;9.498;2022-09-16T02:38:09;10.20;99.90
8402;DHT22;4238;48.404;9.498;2022-09-16T02:40:42;10.30;99.90
8402;DHT22;4238;48.404;9.498;2022-09-16T02:43:11;10.30;99.90
8402;DHT22;4238;48.404;9.498;2022-09-16T02:45:45;10.30;99.90
8402;DHT22;4238;48.404;9.498;2022-09-16T02:48:19;10.30;99.90
8402;DHT22;4238;48.404;9.498;2022-09-16T02:50:51;10.40;99.90
8402;DHT22;4238;48.404;9.498;2022-09-16T02:53:29;10.30;99.90
8402;DHT22;4238;48.404;9.498;2022-09-16T02:56:02;10.30;99.90
8402;DHT22;4238;48.404;9.498;2022-09-16T02:58:32;10.40;99.90
8402;DHT22;4238;48.404;9.498;2022-09-16T03:00:59;10.40;99.90
8402;DHT22;4238;48.404;9.498;2022-09-16T03:03:28;10.50;99.90
8402;DHT22;4238;48.404;9.498;2022-09-16T03:06:14;10.40;99.90
8402;DHT22;4238;48.404;9.498;2022-09-16T03:08:42;10.40;99.90
8402;DHT22;4238;48.404;9.498;2022-09-16T03:11:25;10.30;99.90
8402;DHT22;4238;48.404;9.498;2022-09-16T03:14:09;10.50;99.90
8402;DHT22;4238;48.404;9.498;2022-09-16T03:16:46;10.50;99.90
8402;DHT22;4238;48.404;9.498;2022-09-16T03:19:21;10.60;99.90
8402;DHT22;4238;48.404;9.498;2022-09-16T03:21:55;10.60;99.90
8402;DHT22;4238;48.404;9.498;2022-09-16T03:24:29;10.70;99.90
8402;DHT22;4238;48.404;9.498;2022-09-16T03:27:00;10.70;99.90
8402;DHT22;4238;48.404;9.498;2022-09-16T03:29:34;10.70;99.90
8402;DHT22;4238;48.404;9.498;2022-09-16T03:32:09;10.70;99.90
8402;DHT22;4238;48.404;9.498;2022-09-16T03:34:43;10.80;99.90
8402;DHT22;4238;48.404;9.498;2022-09-16T03:37:15;10.80;99.90
8402;DHT22;4238;48.404;9.498;2022-09-16T03:39:48;10.90;99.90
8402;DHT22;4238;48.404;9.498;2022-09-16T03:42:17;11.00;99.90
8402;DHT22;4238;48.404;9.498;2022-09-16T03:44:44;11.00;99.90
8402;DHT22;4238;48.404;9.498;2022-09-16T03:47:14;11.00;99.90
8402;DHT22;4238;48.404;9.498;2022-09-16T03:49:42;11.00;99.90
8402;DHT22;4238;48.404;9.498;2022-09-16T03:52:09;11.00;99.90
8402;DHT22;4238;48.404;9.498;2022-09-16T03:54:37;11.10;99.90
8402;DHT22;4238;48.404;9.498;2022-09-16T03:57:04;11.20;99.90
8402;DHT22;4238;48.404;9.498;2022-09-16T03:59:32;11.20;99.90
8402;DHT22;4238;48.404;9.498;2022-09-16T04:01:59;11.30;99.90
8402;DHT22;4238;48.404;9.498;2022-09-16T04:04:26;11.20;99.90
8402;DHT22;4238;48.404;9.498;2022-09-16T04:06:54;11.10;99.90
8402;DHT22;4238;48.404;9.498;2022-09-16T04:09:21;11.20;99.90
8402;DHT22;4238;48.404;9.498;2022-09-16T04:11:48;11.10;99.90
8402;DHT22;4238;48.404;9.498;2022-09-16T04:14:15;11.00;99.90
8402;DHT22;4238;48.404;9.498;2022-09-16T04:16:42;10.90;99.90
8402;DHT22;4238;48.404;9.498;2022-09-16T04:19:10;10.90;99.90
8402;DHT22;4238;48.404;9.498;2022-09-16T04:21:37;10.90;99.90
8402;DHT22;4238;48.404;9.498;2022-09-16T04:24:07;11.10;99.90
8402;DHT22;4238;48.404;9.498;2022-09-16T04:26:34;11.20;99.90
8402;DHT22;4238;48.404;9.498;2022-09-16T04:29:00;11.30;99.90
8402;DHT22;4238;48.404;9.498;2022-09-16T04:31:27;11.30;99.90
8402;DHT22;4238;48.404;9.498;2022-09-16T04:33:54;11.20;99.90
8402;DHT22;4238;48.404;9.498;2022-09-16T04:36:21;11.20;99.90
8402;DHT22;4238;48.404;9.498;2022-09-16T04:38:49;11.30;99.90
8402;DHT22;4238;48.404;9.498;2022-09-16T04:41:19;11.30;99.90
8402;DHT22;4238;48.404;9.498;2022-09-16T04:43:49;11.30;99.90
8402;DHT22;4238;48.404;9.498;2022-09-16T04:46:17;11.20;99.90
8402;DHT22;4238;48.404;9.498;2022-09-16T04:48:46;11.20;99.90
8402;DHT22;4238;48.404;9.498;2022-09-16T04:51:13;11.20;99.90
8402;DHT22;4238;48.404;9.498;2022-09-16T04:53:41;11.20;99.90
8402;DHT22;4238;48.404;9.498;2022-09-16T04:56:11;11.20;99.90
8402;DHT22;4238;48.404;9.498;2022-09-16T04:58:42;11.20;99.90
8402;DHT22;4238;48.404;9.498;2022-09-16T05:01:10;11.10;99.90
8402;DHT22;4238;48.404;9.498;2022-09-16T05:03:38;11.10;99.90
8402;DHT22;4238;48.404;9.498;2022-09-16T05:06:07;11.10;99.90
8402;DHT22;4238;48.404;9.498;2022-09-16T05:08:35;11.10;99.90
8402;DHT22;4238;48.404;9.498;2022-09-16T05:11:05;11.10;99.90
8402;DHT22;4238;48.404;9.498;2022-09-16T05:13:32;11.20;99.90
8402;DHT22;4238;48.404;9.498;2022-09-16T05:16:06;11.20;99.90
8402;DHT22;4238;48.404;9.498;2022-09-16T05:18:34;11.30;99.90
8402;DHT22;4238;48.404;9.498;2022-09-16T05:21:03;11.30;99.90
8402;DHT22;4238;48.404;9.498;2022-09-16T05:23:31;11.30;99.90
8402;DHT22;4238;48.404;9.498;2022-09-16T05:26:02;11.40;99.90
8402;DHT22;4238;48.404;9.498;2022-09-16T05:28:30;11.40;99.90
8402;DHT22;4238;48.404;9.498;2022-09-16T05:31:08;11.40;99.90
8402;DHT22;4238;48.404;9.498;2022-09-16T05:33:36;11.50;99.90
8402;DHT22;4238;48.404;9.498;2022-09-16T05:36:04;11.50;99.90
8402;DHT22;4238;48.404;9.498;2022-09-16T05:38:31;11.50;99.90
8402;DHT22;4238;48.404;9.498;2022-09-16T05:40:59;11.60;99.90
8402;DHT22;4238;48.404;9.498;2022-09-16T05:43:26;11.70;99.90
8402;DHT22;4238;48.404;9.498;2022-09-16T05:45:54;11.80;99.90
8402;DHT22;4238;48.404;9.498;2022-09-16T05:48:23;11.80;99.90
8402;DHT22;4238;48.404;9.498;2022-09-16T05:50:51;11.90;99.90
8402;DHT22;4238;48.404;9.498;2022-09-16T05:53:18;11.80;99.90
8402;DHT22;4238;48.404;9.498;2022-09-16T05:55:54;12.00;99.90
8402;DHT22;4238;48.404;9.498;2022-09-16T05:58:21;12.00;99.90
8402;DHT22;4238;48.404;9.498;2022-09-16T06:00:48;12.00;99.90
8402;DHT22;4238;48.404;9.498;2022-09-16T06:03:15;12.00;99.90
8402;DHT22;4238;48.404;9.498;2022-09-16T06:05:43;12.00;99.90
8402;DHT22;4238;48.404;9.498;2022-09-16T06:08:10;12.00;99.90
8402;DHT22;4238;48.404;9.498;2022-09-16T06:10:38;12.00;99.90
8402;DHT22;4238;48.404;9.498;2022-09-16T06:13:05;12.00;99.90
8402;DHT22;4238;48.404;9.498;2022-09-16T06:15:32;12.10;99.90
8402;DHT22;4238;48.404;9.498;2022-09-16T06:18:00;12.10;99.90
8402;DHT22;4238;48.404;9.498;2022-09-16T06:20:27;12.00;99.90
8402;DHT22;4238;48.404;9.498;2022-09-16T06:22:55;12.00;99.90
8402;DHT22;4238;48.404;9.498;2022-09-16T06:25:22;12.10;99.90
8402;DHT22;4238;48.404;9.498;2022-09-16T06:27:48;12.10;99.90
8402;DHT22;4238;48.404;9.498;2022-09-16T06:30:15;12.20;99.90
8402;DHT22;4238;48.404;9.498;2022-09-16T06:32:42;12.20;99.90
8402;DHT22;4238;48.404;9.498;2022-09-16T06:35:09;12.20;99.90
8402;DHT22;4238;48.404;9.498;2022-09-16T06:37:36;12.30;99.90
8402;DHT22;4238;48.404;9.498;2022-09-16T06:40:05;12.40;99.90
8402;DHT22;4238;48.404;9.498;2022-09-16T06:42:32;12.40;99.90
8402;DHT22;4238;48.404;9.498;2022-09-16T06:44:59;12.50;99.90
8402;DHT22;4238;48.404;9.498;2022-09-16T06:47:28;12.50;99.90
8402;DHT22;4238;48.404;9.498;2022-09-16T06:49:57;12.50;99.90
8402;DHT22;4238;48.404;9.498;2022-09-16T06:52:25;12.50;99.90
8402;DHT22;4238;48.404;9.498;2022-09-16T06:54:52;12.40;99.90
8402;DHT22;4238;48.404;9.498;2022-09-16T06:57:21;12.40;99.90
8402;DHT22;4238;48.404;9.498;2022-09-16T06:59:48;12.50;99.90
8402;DHT22;4238;48.404;9.498;2022-09-16T07:02:15;12.60;99.90
8402;DHT22;4238;48.404;9.498;2022-09-16T07:04:42;12.60;99.90
8402;DHT22;4238;48.404;9.498;2022-09-16T07:07:09;12.60;99.90
8402;DHT22;4238;48.404;9.498;2022-09-16T07:09:36;12.60;99.90
8402;DHT22;4238;48.404;9.498;2022-09-16T07:12:04;12.50;99.90
8402;DHT22;4238;48.404;9.498;2022-09-16T07:14:33;12.40;99.90
8402;DHT22;4238;48.404;9.498;2022-09-16T07:17:01;12.30;99.90
8402;DHT22;4238;48.404;9.498;2022-09-16T07:19:28;12.20;99.90
8402;DHT22;4238;48.404;9.498;2022-09-16T07:21:55;12.20;99.90
8402;DHT22;4238;48.404;9.498;2022-09-16T07:24:21;12.10;99.90
8402;DHT22;4238;48.404;9.498;2022-09-16T07:26:49;12.10;99.90
8402;DHT22;4238;48.404;9.498;2022-09-16T07:29:17;12.10;99.90
8402;DHT22;4238;48.404;9.498;2022-09-16T07:31:46;12.00;99.90
8402;DHT22;4238;48.404;9.498;2022-09-16T07:34:13;11.90;99.90
8402;DHT22;4238;48.404;9.498;2022-09-16T07:36:42;11.80;99.90
8402;DHT22;4238;48.404;9.498;2022-09-16T07:39:10;11.80;99.90
8402;DHT22;4238;48.404;9.498;2022-09-16T07:41:39;11.80;99.90
8402;DHT22;4238;48.404;9.498;2022-09-16T07:44:07;11.80;99.90
8402;DHT22;4238;48.404;9.498;2022-09-16T07:46:36;11.60;99.90
8402;DHT22;4238;48.404;9.498;2022-09-16T07:49:06;11.50;99.90
8402;DHT22;4238;48.404;9.498;2022-09-16T07:51:33;11.60;99.90
8402;DHT22;4238;48.404;9.498;2022-09-16T07:54:03;11.70;99.90
8402;DHT22;4238;48.404;9.498;2022-09-16T07:56:32;11.60;99.90
8402;DHT22;4238;48.404;9.498;2022-09-16T07:59:01;11.50;99.90
8402;DHT22;4238;48.404;9.498;2022-09-16T08:01:28;11.40;99.90
8402;DHT22;4238;48.404;9.498;2022-09-16T08:03:56;11.20;99.90
8402;DHT22;4238;48.404;9.498;2022-09-16T08:06:27;11.10;99.90
8402;DHT22;4238;48.404;9.498;2022-09-16T08:08:55;11.00;99.90
8402;DHT22;4238;48.404;9.498;2022-09-16T08:11:22;11.20;99.90
8402;DHT22;4238;48.404;9.498;2022-09-16T08:13:49;11.10;99.90
8402;DHT22;4238;48.404;9.498;2022-09-16T08:16:18;11.20;99.90
8402;DHT22;4238;48.404;9.498;2022-09-16T08:18:48;11.20;99.90
8402;DHT22;4238;48.404;9.498;2022-09-16T08:21:16;11.20;99.90
8402;DHT22;4238;48.404;9.498;2022-09-16T08:23:46;11.10;99.90
8402;DHT22;4238;48.404;9.498;2022-09-16T08:26:14;11.20;99.90
8402;DHT22;4238;48.404;9.498;2022-09-16T08:28:43;11.10;99.90
8402;DHT22;4238;48.404;9.498;2022-09-16T08:31:10;10.90;99.90
8402;DHT22;4238;48.404;9.498;2022-09-16T08:33:38;10.80;99.90
8402;DHT22;4238;48.404;9.498;2022-09-16T08:36:10;10.70;99.90
8402;DHT22;4238;48.404;9.498;2022-09-16T08:38:40;10.70;99.90
8402;DHT22;4238;48.404;9.498;2022-09-16T08:41:21;10.70;99.90
8402;DHT22;4238;48.404;9.498;2022-09-16T08:43:54;10.60;99.90
8402;DHT22;4238;48.404;9.498;2022-09-16T08:46:30;10.70;99.90
8402;DHT22;4238;48.404;9.498;2022-09-16T08:49:02;10.70;99.90
8402;DHT22;4238;48.404;9.498;2022-09-16T08:51:31;10.70;99.90
8402;DHT22;4238;48.404;9.498;2022-09-16T08:54:01;10.70;99.90
8402;DHT22;4238;48.404;9.498;2022-09-16T08:56:32;10.60;99.90
8402;DHT22;4238;48.404;9.498;2022-09-16T08:59:01;10.50;99.90
8402;DHT22;4238;48.404;9.498;2022-09-16T09:01:35;10.40;99.90
8402;DHT22;4238;48.404;9.498;2022-09-16T09:04:04;10.60;99.90
8402;DHT22;4238;48.404;9.498;2022-09-16T09:06:52;10.70;99.90
8402;DHT22;4238;48.404;9.498;2022-09-16T09:09:44;10.60;99.90
8402;DHT22;4238;48.404;9.498;2022-09-16T09:12:22;10.60;99.90
8402;DHT22;4238;48.404;9.498;2022-09-16T09:15:02;10.80;99.90
8402;DHT22;4238;48.404;9.498;2022-09-16T09:17:39;10.90;99.90
8402;DHT22;4238;48.404;9.498;2022-09-16T09:20:15;11.00;99.90
8402;DHT22;4238;48.404;9.498;2022-09-16T09:22:55;11.10;99.90
8402;DHT22;4238;48.404;9.498;2022-09-16T09:25:30;11.20;99.90
8402;DHT22;4238;48.404;9.498;2022-09-16T09:28:13;11.30;99.90
8402;DHT22;4238;48.404;9.498;2022-09-16T09:30:53;11.40;99.90
8402;DHT22;4238;48.404;9.498;2022-09-16T09:33:29;11.40;99.90
8402;DHT22;4238;48.404;9.498;2022-09-16T09:36:25;11.40;99.90
8402;DHT22;4238;48.404;9.498;2022-09-16T09:39:05;11.40;99.90
8402;DHT22;4238;48.404;9.498;2022-09-16T09:41:38;11.50;99.90
8402;DHT22;4238;48.404;9.498;2022-09-16T09:44:25;11.60;99.90
8402;DHT22;4238;48.404;9.498;2022-09-16T09:46:58;11.70;99.90
8402;DHT22;4238;48.404;9.498;2022-09-16T09:49:31;11.60;99.90
8402;DHT22;4238;48.404;9.498;2022-09-16T09:52:04;11.80;99.90
8402;DHT22;4238;48.404;9.498;2022-09-16T09:54:34;11.80;99.90
8402;DHT22;4238;48.404;9.498;2022-09-16T09:57:04;12.00;99.90
8402;DHT22;4238;48.404;9.498;2022-09-16T09:59:43;12.10;99.90
8402;DHT22;4238;48.404;9.498;2022-09-16T10:02:15;12.20;99.90
8402;DHT22;4238;48.404;9.498;2022-09-16T10:04:43;12.30;99.90
8402;DHT22;4238;48.404;9.498;2022-09-16T10:07:12;12.40;99.90
8402;DHT22;4238;48.404;9.498;2022-09-16T10:09:47;12.50;99.90
8402;DHT22;4238;48.404;9.498;2022-09-16T10:12:26;12.50;99.90
8402;DHT22;4238;48.404;9.498;2022-09-16T10:14:55;12.60;99.90
8402;DHT22;4238;48.404;9.498;2022-09-16T10:17:22;12.50;97.40
8402;DHT22;4238;48.404;9.498;2022-09-16T10:19:51;12.40;99.90
8402;DHT22;4238;48.404;9.498;2022-09-16T10:22:21;12.40;99.90
8402;DHT22;4238;48.404;9.498;2022-09-16T10:24:53;12.30;99.90
8402;DHT22;4238;48.404;9.498;2022-09-16T10:27:23;12.30;99.90
8402;DHT22;4238;48.404;9.498;2022-09-16T10:30:12;12.20;99.90
8402;DHT22;4238;48.404;9.498;2022-09-16T10:32:46;12.40;99.90
8402;DHT22;4238;48.404;9.498;2022-09-16T10:35:19;12.50;99.90
8402;DHT22;4238;48.404;9.498;2022-09-16T10:37:52;12.60;99.90
8402;DHT22;4238;48.404;9.498;2022-09-16T10:40:19;12.70;99.90
8402;DHT22;4238;48.404;9.498;2022-09-16T10:42:49;12.70;99.90
8402;DHT22;4238;48.404;9.498;2022-09-16T10:45:25;12.80;99.90
8402;DHT22;4238;48.404;9.498;2022-09-16T10:47:55;12.90;99.90
8402;DHT22;4238;48.404;9.498;2022-09-16T10:50:24;13.10;99.90
8402;DHT22;4238;48.404;9.498;2022-09-16T10:52:52;13.10;99.90
8402;DHT22;4238;48.404;9.498;2022-09-16T10:55:26;13.20;99.90
8402;DHT22;4238;48.404;9.498;2022-09-16T10:58:05;13.30;99.90
8402;DHT22;4238;48.404;9.498;2022-09-16T11:00:39;13.50;98.50
8402;DHT22;4238;48.404;9.498;2022-09-16T11:03:34;13.70;95.70
8402;DHT22;4238;48.404;9.498;2022-09-16T11:06:10;13.70;80.40
8402;DHT22;4238;48.404;9.498;2022-09-16T11:08:50;13.60;85.70
8402;DHT22;4238;48.404;9.498;2022-09-16T11:11:35;13.60;90.10
8402;DHT22;4238;48.404;9.498;2022-09-16T11:14:09;13.70;97.00
8402;DHT22;4238;48.404;9.498;2022-09-16T11:17:04;13.60;94.70
8402;DHT22;4238;48.404;9.498;2022-09-16T11:19:45;13.60;82.40
8402;DHT22;4238;48.404;9.498;2022-09-16T11:22:20;13.60;83.90
8402;DHT22;4238;48.404;9.498;2022-09-16T11:25:18;13.50;62.10
8402;DHT22;4238;48.404;9.498;2022-09-16T11:27:52;13.50;62.00
8402;DHT22;4238;48.404;9.498;2022-09-16T11:30:21;13.80;51.20
8402;DHT22;4238;48.404;9.498;2022-09-16T11:33:09;13.80;40.70
8402;DHT22;4238;48.404;9.498;2022-09-16T11:36:01;13.90;35.90
8402;DHT22;4238;48.404;9.498;2022-09-16T11:38:37;13.90;39.10
8402;DHT22;4238;48.404;9.498;2022-09-16T11:41:12;14.10;26.00
8402;DHT22;4238;48.404;9.498;2022-09-16T11:46:47;15.00;9.00
8402;DHT22;4238;48.404;9.498;2022-09-16T11:49:34;15.30;1.00
8402;DHT22;4238;48.404;9.498;2022-09-16T11:52:16;15.40;1.00
8402;DHT22;4238;48.404;9.498;2022-09-16T11:55:08;15.30;1.00
8402;DHT22;4238;48.404;9.498;2022-09-16T11:57:40;15.10;1.00
8402;DHT22;4238;48.404;9.498;2022-09-16T12:00:11;14.80;1.00
8402;DHT22;4238;48.404;9.498;2022-09-16T12:02:47;14.60;1.00
8402;DHT22;4238;48.404;9.498;2022-09-16T12:05:19;14.30;1.00
8402;DHT22;4238;48.404;9.498;2022-09-16T12:07:51;14.20;1.00
8402;DHT22;4238;48.404;9.498;2022-09-16T12:10:22;14.60;1.00
8402;DHT22;4238;48.404;9.498;2022-09-16T12:12:52;14.50;1.00
8402;DHT22;4238;48.404;9.498;2022-09-16T12:15:24;14.40;1.00
8402;DHT22;4238;48.404;9.498;2022-09-16T12:17:54;14.40;1.00
8402;DHT22;4238;48.404;9.498;2022-09-16T12:20:28;14.20;1.00
8402;DHT22;4238;48.404;9.498;2022-09-16T12:23:03;14.20;1.00
8402;DHT22;4238;48.404;9.498;2022-09-16T12:25:36;13.90;1.00
8402;DHT22;4238;48.404;9.498;2022-09-16T12:28:09;13.70;1.00
8402;DHT22;4238;48.404;9.498;2022-09-16T12:30:41;13.90;1.00
8402;DHT22;4238;48.404;9.498;2022-09-16T12:33:16;14.10;1.00
8402;DHT22;4238;48.404;9.498;2022-09-16T12:35:50;14.70;1.00
8402;DHT22;4238;48.404;9.498;2022-09-16T12:38:20;15.00;1.00
8402;DHT22;4238;48.404;9.498;2022-09-16T12:41:00;15.00;1.00
8402;DHT22;4238;48.404;9.498;2022-09-16T12:50:02;15.60;99.90
8402;DHT22;4238;48.404;9.498;2022-09-16T12:52:51;15.30;74.10
8402;DHT22;4238;48.404;9.498;2022-09-16T12:55:35;15.20;28.00
8402;DHT22;4238;48.404;9.498;2022-09-16T13:01:06;15.30;1.00
8402;DHT22;4238;48.404;9.498;2022-09-16T13:03:42;15.10;99.90
8402;DHT22;4238;48.404;9.498;2022-09-16T13:06:22;14.80;99.90
8402;DHT22;4238;48.404;9.498;2022-09-16T13:08:51;14.70;1.00
8402;DHT22;4238;48.404;9.498;2022-09-16T13:11:21;14.70;1.00
8402;DHT22;4238;48.404;9.498;2022-09-16T13:13:50;15.00;1.00
8402;DHT22;4238;48.404;9.498;2022-09-16T13:16:29;15.10;1.00
8402;DHT22;4238;48.404;9.498;2022-09-16T13:19:24;15.20;1.00
8402;DHT22;4238;48.404;9.498;2022-09-16T13:21:56;15.10;99.90
8402;DHT22;4238;48.404;9.498;2022-09-16T13:24:30;14.80;99.90
8402;DHT22;4238;48.404;9.498;2022-09-16T13:26:59;14.50;1.00
8402;DHT22;4238;48.404;9.498;2022-09-16T13:29:38;14.40;99.90
8402;DHT22;4238;48.404;9.498;2022-09-16T13:32:23;14.30;99.90
8402;DHT22;4238;48.404;9.498;2022-09-16T13:35:00;14.20;1.00
8402;DHT22;4238;48.404;9.498;2022-09-16T13:37:27;14.00;1.00
8402;DHT22;4238;48.404;9.498;2022-09-16T13:39:55;14.00;1.00
8402;DHT22;4238;48.404;9.498;2022-09-16T13:42:33;14.10;1.00
8402;DHT22;4238;48.404;9.498;2022-09-16T13:45:00;14.20;1.00
8402;DHT22;4238;48.404;9.498;2022-09-16T13:47:31;14.30;1.00
8402;DHT22;4238;48.404;9.498;2022-09-16T13:50:10;14.40;1.00
8402;DHT22;4238;48.404;9.498;2022-09-16T13:52:38;14.40;1.00
8402;DHT22;4238;48.404;9.498;2022-09-16T13:55:19;14.30;1.00
8402;DHT22;4238;48.404;9.498;2022-09-16T13:57:58;14.30;1.00
8402;DHT22;4238;48.404;9.498;2022-09-16T14:00:28;14.30;1.00
8402;DHT22;4238;48.404;9.498;2022-09-16T14:06:35;14.20;1.00
8402;DHT22;4238;48.404;9.498;2022-09-16T14:09:27;14.50;1.00
8402;DHT22;4238;48.404;9.498;2022-09-16T14:12:06;14.90;1.00
8402;DHT22;4238;48.404;9.498;2022-09-16T14:14:35;15.20;1.00
8402;DHT22;4238;48.404;9.498;2022-09-16T14:17:04;15.40;1.00
8402;DHT22;4238;48.404;9.498;2022-09-16T14:19:41;15.30;1.00
8402;DHT22;4238;48.404;9.498;2022-09-16T14:22:14;15.10;99.90
8402;DHT22;4238;48.404;9.498;2022-09-16T14:24:43;14.80;99.90
8402;DHT22;4238;48.404;9.498;2022-09-16T14:27:27;14.50;99.90
8402;DHT22;4238;48.404;9.498;2022-09-16T14:29:55;14.30;62.20
8402;DHT22;4238;48.404;9.498;2022-09-16T14:32:24;14.20;1.00
8402;DHT22;4238;48.404;9.498;2022-09-16T14:34:52;14.40;1.00
8402;DHT22;4238;48.404;9.498;2022-09-16T14:37:20;14.60;30.40
8402;DHT22;4238;48.404;9.498;2022-09-16T14:39:50;14.70;98.30
8402;DHT22;4238;48.404;9.498;2022-09-16T14:42:21;14.70;99.90
8402;DHT22;4238;48.404;9.498;2022-09-16T14:44:51;14.70;99.90
8402;DHT22;4238;48.404;9.498;2022-09-16T14:47:23;14.60;1.00
8402;DHT22;4238;48.404;9.498;2022-09-16T14:49:56;14.80;1.00
8402;DHT22;4238;48.404;9.498;2022-09-16T14:52:29;15.00;64.70
8402;DHT22;4238;48.404;9.498;2022-09-16T14:54:57;15.10;9.40
8402;DHT22;4238;48.404;9.498;2022-09-16T14:57:27;15.10;99.90
8402;DHT22;4238;48.404;9.498;2022-09-16T14:59:56;15.10;1.00
8402;DHT22;4238;48.404;9.498;2022-09-16T15:02:25;14.90;1.00
8402;DHT22;4238;48.404;9.498;2022-09-16T15:04:56;14.70;1.00
8402;DHT22;4238;48.404;9.498;2022-09-16T15:07:27;14.80;99.90
8402;DHT22;4238;48.404;9.498;2022-09-16T15:09:58;15.10;93.30
8402;DHT22;4238;48.404;9.498;2022-09-16T15:12:32;15.20;1.00
8402;DHT22;4238;48.404;9.498;2022-09-16T15:15:03;15.20;1.00
8402;DHT22;4238;48.404;9.498;2022-09-16T15:17:30;15.20;62.10
8402;DHT22;4238;48.404;9.498;2022-09-16T15:19:58;15.20;99.90
8402;DHT22;4238;48.404;9.498;2022-09-16T15:22:25;15.20;1.00
8402;DHT22;4238;48.404;9.498;2022-09-16T15:24:55;15.10;99.90
8402;DHT22;4238;48.404;9.498;2022-09-16T15:27:24;15.10;1.00
8402;DHT22;4238;48.404;9.498;2022-09-16T15:29:56;15.00;99.90
8402;DHT22;4238;48.404;9.498;2022-09-16T15:32:25;15.10;99.90
8402;DHT22;4238;48.404;9.498;2022-09-16T15:35:08;15.20;99.90
8402;DHT22;4238;48.404;9.498;2022-09-16T15:37:36;15.10;1.00
8402;DHT22;4238;48.404;9.498;2022-09-16T15:40:21;14.70;1.00
8402;DHT22;4238;48.404;9.498;2022-09-16T15:43:11;14.50;1.00
8402;DHT22;4238;48.404;9.498;2022-09-16T15:45:40;14.30;1.00
8402;DHT22;4238;48.404;9.498;2022-09-16T15:48:12;14.00;99.90
8402;DHT22;4238;48.404;9.498;2022-09-16T15:50:45;13.80;99.90
8402;DHT22;4238;48.404;9.498;2022-09-16T15:53:17;13.80;99.90
8402;DHT22;4238;48.404;9.498;2022-09-16T15:55:54;13.80;99.90
8402;DHT22;4238;48.404;9.498;2022-09-16T15:58:30;13.90;99.90
8402;DHT22;4238;48.404;9.498;2022-09-16T16:01:10;13.70;99.90
8402;DHT22;4238;48.404;9.498;2022-09-16T16:03:51;13.90;1.00
8402;DHT22;4238;48.404;9.498;2022-09-16T16:06:20;14.20;99.90
8402;DHT22;4238;48.404;9.498;2022-09-16T16:08:48;14.30;99.90
8402;DHT22;4238;48.404;9.498;2022-09-16T16:11:17;14.30;99.90
8402;DHT22;4238;48.404;9.498;2022-09-16T16:13:44;14.30;99.90
8402;DHT22;4238;48.404;9.498;2022-09-16T16:16:14;14.30;99.90
8402;DHT22;4238;48.404;9.498;2022-09-16T16:18:42;14.20;99.90
8402;DHT22;4238;48.404;9.498;2022-09-16T16:21:13;14.10;99.90
8402;DHT22;4238;48.404;9.498;2022-09-16T16:23:40;13.90;99.90
8402;DHT22;4238;48.404;9.498;2022-09-16T16:26:09;13.70;1.00
8402;DHT22;4238;48.404;9.498;2022-09-16T16:28:36;13.50;1.00
8402;DHT22;4238;48.404;9.498;2022-09-16T16:31:08;13.50;1.00
8402;DHT22;4238;48.404;9.498;2022-09-16T16:33:36;13.60;1.00
8402;DHT22;4238;48.404;9.498;2022-09-16T16:36:04;13.70;1.00
8402;DHT22;4238;48.404;9.498;2022-09-16T16:38:31;13.70;1.00
8402;DHT22;4238;48.404;9.498;2022-09-16T16:40:57;13.80;1.00
8402;DHT22;4238;48.404;9.498;2022-09-16T16:43:24;13.80;1.00
8402;DHT22;4238;48.404;9.498;2022-09-16T16:45:55;13.70;1.00
8402;DHT22;4238;48.404;9.498;2022-09-16T16:48:22;13.60;1.00
8402;DHT22;4238;48.404;9.498;2022-09-16T16:50:57;13.60;1.00
8402;DHT22;4238;48.404;9.498;2022-09-16T16:53:26;13.50;1.00
8402;DHT22;4238;48.404;9.498;2022-09-16T16:55:53;13.40;1.00